Yurovsk, Russia
Current Conditions -  °F | °C
As of 1:30 PM on Monday 20 Oct 2014 (Local Time) from USHH Reporting Station
Light Snow Light Snow  
Wind Chill:   Ceiling: 900
Heat Index: 18°   Visibility: 1.9mi
Dew Point: 14°   Wind: 9mph
Humidity: 86%   Direction: 30°NNE
Pressure: 29.47"   Gusts: NA
Location:  59.47°N, 69.07°E
Report Text: USHH 200830Z 03004MPS 3100 -SN OVC009 M08/M10 Q0998 TEMPO0300 +SN VV001 RMK QFE745 06////50
Loading
Personal Weather Stations






























Interactive Weather Map
Tropical Storm Tracking
New forecast layout! Learn more

10-Day Weather Forecast

Advertisements
Track Severe Weather on mobile